Time;durP1;ratioP1;P1;durP2;ratioP2;P2;SDS_P1;SDS_P2;PMS_P1;PMS_P2;Temp;Humidity;BMP_temperature;BMP_pressure;BME280_temperature;BME280_humidity;BME280_pressure;Samples;Min_cycle;Max_cycle;Signal;HPM_P1;HPM_P2
2023/03/12 00:01:00;;;;;;;10.32;9.05;;;;;;;;;;10414627;27;20098;-57
2023/03/12 00:05:58;;;;;;;11.63;7.47;;;;;;;;;;10421071;27;20086;-56
2023/03/12 00:11:09;;;;;;;17.95;7.65;;;;;;;;;;10418786;27;20083;-57
2023/03/12 00:16:08;;;;;;;9.75;7.55;;;;;;;;;;10414566;27;20121;-56
2023/03/12 00:21:07;;;;;;;9.85;6.28;;;;;;;;;;10415287;27;20068;-58
2023/03/12 00:26:06;;;;;;;6.43;5.78;;;;;;;;;;10416729;27;20074;-56
2023/03/12 00:31:13;;;;;;;7.90;4.85;;;;;;;;;;10418011;27;20079;-57
2023/03/12 00:36:11;;;;;;;7.65;5.45;;;;;;;;;;10417148;27;20141;-57
2023/03/12 00:41:10;;;;;;;10.93;5.32;;;;;;;;;;10416800;27;20075;-55
2023/03/12 00:46:09;;;;;;;8.52;5.53;;;;;;;;;;10416388;27;20043;-54
2023/03/12 00:51:07;;;;;;;8.13;5.45;;;;;;;;;;10416899;27;20078;-54
2023/03/12 00:56:06;;;;;;;12.95;6.10;;;;;;;;;;10416719;27;20067;-55
2023/03/12 01:01:05;;;;;;;11.30;5.75;;;;;;;;;;10416718;27;20082;-55
2023/03/12 01:06:05;;;;;;;10.98;5.45;;;;;;;;;;10417806;27;20074;-57
2023/03/12 01:11:03;;;;;;;10.77;6.43;;;;;;;;;;10417046;27;20078;-56
2023/03/12 01:16:01;;;;;;;10.73;5.68;;;;;;;;;;10412019;27;20071;-55
2023/03/12 01:20:59;;;;;;;10.63;5.35;;;;;;;;;;10417132;27;20063;-56
2023/03/12 01:25:59;;;;;;;9.23;5.43;;;;;;;;;;10416771;27;20604;-56
2023/03/12 01:30:57;;;;;;;8.15;4.88;;;;;;;;;;10414663;27;20075;-55
2023/03/12 01:35:55;;;;;;;7.88;5.35;;;;;;;;;;10415303;27;20059;-56
2023/03/12 01:40:53;;;;;;;13.02;5.90;;;;;;;;;;10413623;27;20063;-57
2023/03/12 01:46:04;;;;;;;9.75;4.50;;;;;;;;;;10414307;27;20074;-57
2023/03/12 01:51:04;;;;;;;8.70;4.60;;;;;;;;;;10417026;27;20082;-56
2023/03/12 01:56:03;;;;;;;10.50;5.78;;;;;;;;;;10413352;27;20094;-57
2023/03/12 02:01:03;;;;;;;12.52;5.70;;;;;;;;;;10413657;27;20079;-57
2023/03/12 02:06:02;;;;;;;10.00;5.82;;;;;;;;;;10411740;27;20478;-56
2023/03/12 02:11:00;;;;;;;14.23;7.78;;;;;;;;;;10414024;27;20078;-56
2023/03/12 02:16:00;;;;;;;15.20;9.25;;;;;;;;;;10412425;27;20046;-56
2023/03/12 02:21:04;;;;;;;16.10;5.65;;;;;;;;;;10413500;27;20067;-56
2023/03/12 02:26:04;;;;;;;10.15;6.50;;;;;;;;;;10420805;27;20646;-55
2023/03/12 02:31:04;;;;;;;14.70;8.77;;;;;;;;;;10412597;27;20074;-57
2023/03/12 02:36:02;;;;;;;8.95;5.18;;;;;;;;;;10410199;27;20074;-57
2023/03/12 02:41:02;;;;;;;13.25;5.50;;;;;;;;;;10412424;27;20071;-56
2023/03/12 02:46:01;;;;;;;22.58;8.73;;;;;;;;;;10411063;27;20048;-57
2023/03/12 02:51:00;;;;;;;7.97;5.82;;;;;;;;;;10412449;27;20074;-57
2023/03/12 02:55:58;;;;;;;11.70;6.65;;;;;;;;;;10412991;28;20075;-58
2023/03/12 03:00:56;;;;;;;10.75;4.72;;;;;;;;;;10412287;28;20051;-57
2023/03/12 03:05:56;;;;;;;18.98;10.32;;;;;;;;;;10406160;28;20521;-56
2023/03/12 03:10:55;;;;;;;7.28;4.15;;;;;;;;;;10405581;28;20043;-57
2023/03/12 03:15:56;;;;;;;5.38;4.00;;;;;;;;;;10412772;28;20512;-57
2023/03/12 03:20:56;;;;;;;5.45;4.40;;;;;;;;;;10413154;28;20068;-57
2023/03/12 03:25:55;;;;;;;7.80;4.25;;;;;;;;;;10412505;28;20067;-56
2023/03/12 03:30:53;;;;;;;10.38;4.60;;;;;;;;;;10410404;28;20071;-57
2023/03/12 03:35:54;;;;;;;6.72;4.18;;;;;;;;;;10419462;28;20082;-56
2023/03/12 03:40:54;;;;;;;7.00;3.72;;;;;;;;;;10406921;28;20044;-56
2023/03/12 03:45:56;;;;;;;4.30;3.90;;;;;;;;;;10407673;28;20469;-57
2023/03/12 03:50:55;;;;;;;6.10;4.25;;;;;;;;;;10410744;28;20082;-56
2023/03/12 03:55:54;;;;;;;5.00;3.85;;;;;;;;;;10410382;28;20067;-57
2023/03/12 04:00:54;;;;;;;7.50;4.75;;;;;;;;;;10417116;27;20086;-55
2023/03/12 04:05:54;;;;;;;5.00;4.35;;;;;;;;;;10418776;27;20078;-56
2023/03/12 04:10:53;;;;;;;11.98;5.30;;;;;;;;;;10417695;27;20079;-56
2023/03/12 04:15:53;;;;;;;6.70;4.57;;;;;;;;;;10415621;27;20497;-56
2023/03/12 04:20:51;;;;;;;9.10;4.80;;;;;;;;;;10418530;27;20773;-55
2023/03/12 04:25:49;;;;;;;5.30;4.13;;;;;;;;;;10413756;27;20066;-56
2023/03/12 04:30:55;;;;;;;8.73;5.60;;;;;;;;;;10418155;27;20070;-56
2023/03/12 04:35:54;;;;;;;10.10;7.43;;;;;;;;;;10418440;27;20078;-57
2023/03/12 04:40:57;;;;;;;7.70;5.45;;;;;;;;;;10415172;27;20077;-56
2023/03/12 04:45:57;;;;;;;15.55;5.15;;;;;;;;;;10424267;27;20153;-55
2023/03/12 04:50:56;;;;;;;6.43;4.53;;;;;;;;;;10415861;27;20067;-57
2023/03/12 04:55:54;;;;;;;7.38;4.75;;;;;;;;;;10417628;27;20078;-55
2023/03/12 05:00:52;;;;;;;6.47;4.95;;;;;;;;;;10421402;27;20531;-57
2023/03/12 05:05:53;;;;;;;9.43;4.78;;;;;;;;;;10417980;27;20039;-57
2023/03/12 05:10:51;;;;;;;8.23;6.03;;;;;;;;;;10415755;27;20482;-55
2023/03/12 05:15:51;;;;;;;18.33;11.02;;;;;;;;;;10415298;27;20083;-57
2023/03/12 05:20:59;;;;;;;33.70;17.08;;;;;;;;;;10418603;27;20039;-57
2023/03/12 05:25:57;;;;;;;7.85;4.45;;;;;;;;;;10427298;27;20046;-56
2023/03/12 05:30:56;;;;;;;11.32;5.70;;;;;;;;;;10415612;27;20500;-56
2023/03/12 05:35:54;;;;;;;9.93;7.20;;;;;;;;;;10414655;27;20466;-58
2023/03/12 05:40:56;;;;;;;6.57;5.03;;;;;;;;;;10414236;27;20071;-57
2023/03/12 05:45:58;;;;;;;13.75;5.43;;;;;;;;;;10414182;27;20500;-57
2023/03/12 05:50:57;;;;;;;8.80;4.75;;;;;;;;;;10414142;27;20075;-56
2023/03/12 05:56:01;;;;;;;13.18;8.60;;;;;;;;;;10413364;27;20082;-57
2023/03/12 06:01:00;;;;;;;7.80;6.80;;;;;;;;;;10430606;27;20215;-57
2023/03/12 06:05:59;;;;;;;33.60;14.93;;;;;;;;;;10415298;27;20051;-56
2023/03/12 06:10:59;;;;;;;29.27;8.32;;;;;;;;;;10413007;27;20082;-56
2023/03/12 06:16:02;;;;;;;10.50;6.07;;;;;;;;;;10412262;27;20093;-56
2023/03/12 06:21:10;;;;;;;15.57;6.32;;;;;;;;;;10414660;27;20039;-57
2023/03/12 06:26:11;;;;;;;17.42;6.90;;;;;;;;;;10421498;27;20079;-58
2023/03/12 06:31:10;;;;;;;12.63;9.60;;;;;;;;;;10410746;27;20082;-57
2023/03/12 06:36:09;;;;;;;9.55;7.28;;;;;;;;;;10414858;27;20078;-56
2023/03/12 06:41:08;;;;;;;7.57;4.72;;;;;;;;;;10413422;27;20087;-57
2023/03/12 06:46:08;;;;;;;6.72;5.72;;;;;;;;;;10414490;27;20079;-57
2023/03/12 06:51:07;;;;;;;7.47;6.68;;;;;;;;;;10413368;27;20424;-57
2023/03/12 06:56:06;;;;;;;8.40;5.35;;;;;;;;;;10413179;28;20081;-55
2023/03/12 07:01:04;;;;;;;6.68;5.18;;;;;;;;;;10412444;28;20087;-58
2023/03/12 07:06:04;;;;;;;6.50;5.07;;;;;;;;;;10412559;28;20086;-54
2023/03/12 07:11:02;;;;;;;5.63;4.68;;;;;;;;;;10412494;28;20083;-57
2023/03/12 07:16:01;;;;;;;7.80;5.97;;;;;;;;;;10412539;28;20074;-56
2023/03/12 07:20:59;;;;;;;9.38;5.43;;;;;;;;;;10408348;28;20067;-57
2023/03/12 07:25:59;;;;;;;5.75;5.10;;;;;;;;;;10412183;28;20063;-57
2023/03/12 07:31:00;;;;;;;6.00;4.80;;;;;;;;;;10412721;28;20067;-56
2023/03/12 07:35:58;;;;;;;6.25;5.65;;;;;;;;;;10419649;27;20075;-58
2023/03/12 07:40:57;;;;;;;4.95;4.45;;;;;;;;;;10418780;27;20078;-57
2023/03/12 07:45:56;;;;;;;12.27;8.00;;;;;;;;;;10418466;27;20063;-54
2023/03/12 07:50:55;;;;;;;6.43;5.03;;;;;;;;;;10418954;27;20500;-55
2023/03/12 07:55:54;;;;;;;10.27;6.35;;;;;;;;;;10419612;27;20074;-56
2023/03/12 08:00:54;;;;;;;8.73;7.20;;;;;;;;;;10419553;27;20465;-58
2023/03/12 08:05:57;;;;;;;8.15;5.07;;;;;;;;;;10420504;27;20308;-58
2023/03/12 08:10:56;;;;;;;9.23;5.90;;;;;;;;;;10419709;27;20086;-58
2023/03/12 08:15:54;;;;;;;7.15;6.38;;;;;;;;;;10418013;27;20117;-56
2023/03/12 08:20:53;;;;;;;12.50;8.82;;;;;;;;;;10413213;27;20067;-57
2023/03/12 08:25:53;;;;;;;7.25;5.18;;;;;;;;;;10419696;27;20496;-58
2023/03/12 08:30:52;;;;;;;6.80;6.10;;;;;;;;;;10418152;27;20046;-58
2023/03/12 08:35:50;;;;;;;27.88;12.50;;;;;;;;;;10418537;27;20079;-57
2023/03/12 08:40:55;;;;;;;10.00;8.38;;;;;;;;;;10418233;27;20071;-58
2023/03/12 08:45:53;;;;;;;;;;;;;;;;;;10416226;27;20071;-57
2023/03/12 08:50:54;;;;;;;7.18;5.47;;;;;;;;;;10418575;27;19966;-57
2023/03/12 08:55:52;;;;;;;6.65;5.03;;;;;;;;;;10417027;27;20079;-58
2023/03/12 09:00:52;;;;;;;6.53;4.65;;;;;;;;;;10418325;27;20082;-57
2023/03/12 09:05:50;;;;;;;9.30;5.32;;;;;;;;;;10418398;27;20079;-59
2023/03/12 09:10:49;;;;;;;11.15;6.22;;;;;;;;;;10415244;27;20043;-57
2023/03/12 09:15:47;;;;;;;9.98;5.82;;;;;;;;;;10417478;27;20086;-56
2023/03/12 09:20:47;;;;;;;12.77;10.20;;;;;;;;;;10412165;27;20082;-58
2023/03/12 09:25:45;;;;;;;8.25;7.45;;;;;;;;;;10414850;27;20074;-58
2023/03/12 09:30:43;;;;;;;12.50;9.00;;;;;;;;;;10416714;27;20148;-59
2023/03/12 09:35:42;;;;;;;12.55;9.13;;;;;;;;;;10413491;27;20067;-57
2023/03/12 09:40:43;;;;;;;11.23;8.02;;;;;;;;;;10411735;27;20810;-56
2023/03/12 09:45:43;;;;;;;8.20;7.20;;;;;;;;;;10412962;27;20118;-57
2023/03/12 09:50:42;;;;;;;7.50;6.80;;;;;;;;;;10414308;27;20067;-58
2023/03/12 09:55:43;;;;;;;9.27;8.38;;;;;;;;;;10414545;27;20082;-58
2023/03/12 10:00:41;;;;;;;15.10;11.27;;;;;;;;;;10415541;27;20075;-58
2023/03/12 10:05:45;;;;;;;14.02;8.05;;;;;;;;;;10415344;27;20520;-57
2023/03/12 10:10:50;;;;;;;11.20;7.28;;;;;;;;;;10413204;27;20495;-58
2023/03/12 10:15:55;;;;;;;7.28;6.55;;;;;;;;;;10413669;27;20492;-59
2023/03/12 10:20:55;;;;;;;6.30;4.88;;;;;;;;;;10410273;27;20507;-57
2023/03/12 10:25:57;;;;;;;12.77;9.50;;;;;;;;;;10408544;27;20067;-57
2023/03/12 10:30:57;;;;;;;9.25;8.35;;;;;;;;;;10410420;27;20070;-58
2023/03/12 10:35:55;;;;;;;12.10;9.02;;;;;;;;;;10413737;27;20070;-58
2023/03/12 10:40:55;;;;;;;13.10;9.55;;;;;;;;;;10413527;27;20074;-56
2023/03/12 10:45:59;;;;;;;20.02;10.45;;;;;;;;;;10412464;27;20093;-59
2023/03/12 10:51:02;;;;;;;11.50;7.90;;;;;;;;;;10411797;27;20055;-57
2023/03/12 10:56:03;;;;;;;15.88;10.43;;;;;;;;;;10414175;27;20169;-58
2023/03/12 11:01:02;;;;;;;29.98;26.85;;;;;;;;;;10413305;27;20091;-59
2023/03/12 11:06:02;;;;;;;11.77;9.93;;;;;;;;;;10414865;27;20066;-57
2023/03/12 11:11:01;;;;;;;10.35;8.27;;;;;;;;;;10420433;27;20067;-58
2023/03/12 11:16:02;;;;;;;10.68;9.57;;;;;;;;;;10421466;27;20071;-58
2023/03/12 11:21:14;;;;;;;9.52;7.55;;;;;;;;;;10417255;27;20097;-58
2023/03/12 11:26:14;;;;;;;8.07;6.78;;;;;;;;;;10420674;27;20063;-56
2023/03/12 11:31:16;;;;;;;9.82;8.80;;;;;;;;;;10420900;27;20475;-56
2023/03/12 11:36:29;;;;;;;11.07;9.15;;;;;;;;;;10420705;27;20359;-55
2023/03/12 11:41:33;;;;;;;8.75;7.85;;;;;;;;;;10420178;27;20066;-56
2023/03/12 11:46:42;;;;;;;7.97;7.20;;;;;;;;;;10419710;27;20548;-54
2023/03/12 11:51:45;;;;;;;8.00;7.30;;;;;;;;;;10414833;27;20133;-58
2023/03/12 11:56:45;;;;;;;8.38;7.60;;;;;;;;;;10415985;27;20082;-58
2023/03/12 12:01:49;;;;;;;12.25;8.73;;;;;;;;;;10417584;27;20079;-58
2023/03/12 12:06:54;;;;;;;12.10;8.85;;;;;;;;;;10418599;27;20070;-58
2023/03/12 12:11:58;;;;;;;11.02;6.10;;;;;;;;;;10417105;27;20163;-55
2023/03/12 12:17:03;;;;;;;6.45;5.15;;;;;;;;;;10418322;27;20075;-57
2023/03/12 12:22:06;;;;;;;14.23;11.38;;;;;;;;;;10417165;27;20074;-58
2023/03/12 12:27:07;;;;;;;9.30;6.25;;;;;;;;;;10417534;27;20107;-57
2023/03/12 12:32:12;;;;;;;9.27;5.20;;;;;;;;;;10419615;27;20518;-58
2023/03/12 12:37:10;;;;;;;;;;;;;;;;;;10417592;27;20079;-57
2023/03/12 12:42:13;;;;;;;19.88;12.10;;;;;;;;;;10419948;27;19951;-57
2023/03/12 12:47:17;;;;;;;21.25;13.88;;;;;;;;;;10418297;27;20071;-58
2023/03/12 12:52:16;;;;;;;13.68;8.90;;;;;;;;;;10417957;27;20082;-58
2023/03/12 12:57:16;;;;;;;19.88;13.00;;;;;;;;;;10417478;27;20504;-57
2023/03/12 13:02:17;;;;;;;22.10;12.52;;;;;;;;;;10417632;27;20079;-57
2023/03/12 13:07:39;;;;;;;17.33;12.50;;;;;;;;;;10416951;27;20039;-58
2023/03/12 13:12:43;;;;;;;10.90;7.82;;;;;;;;;;10408381;27;20111;-57
2023/03/12 13:17:56;;;;;;;6.00;3.88;;;;;;;;;;10410644;27;20070;-57
2023/03/12 13:23:09;;;;;;;14.23;9.50;;;;;;;;;;10413630;27;20070;-57
2023/03/12 13:28:31;;;;;;;20.02;12.70;;;;;;;;;;10416588;27;20070;-57
2023/03/12 13:33:40;;;;;;;12.38;10.20;;;;;;;;;;10410818;27;20039;-58
2023/03/12 13:38:53;;;;;;;13.70;7.80;;;;;;;;;;10416349;27;20067;-58
2023/03/12 13:43:52;;;;;;;4.75;3.67;;;;;;;;;;10411225;27;20067;-57
2023/03/12 13:48:50;;;;;;;15.68;8.07;;;;;;;;;;10411866;27;20274;-57
2023/03/12 13:53:52;;;;;;;7.95;6.18;;;;;;;;;;10413798;27;20066;-59
2023/03/12 13:58:55;;;;;;;18.08;9.93;;;;;;;;;;10415099;27;20477;-57
2023/03/12 14:03:55;;;;;;;23.95;15.02;;;;;;;;;;10414488;27;20071;-56
2023/03/12 14:09:03;;;;;;;8.85;7.03;;;;;;;;;;10414759;27;20078;-58
2023/03/12 14:14:23;;;;;;;8.65;4.90;;;;;;;;;;10415511;27;20071;-57
2023/03/12 14:19:23;;;;;;;4.25;3.63;;;;;;;;;;10406636;27;20082;-57
2023/03/12 14:24:27;;;;;;;5.13;4.07;;;;;;;;;;10411324;27;20067;-57
2023/03/12 14:29:28;;;;;;;8.93;6.40;;;;;;;;;;10411167;27;20058;-58
2023/03/12 14:34:27;;;;;;;6.60;5.28;;;;;;;;;;10409907;27;20070;-58
2023/03/12 14:39:28;;;;;;;9.35;6.43;;;;;;;;;;10410871;27;20112;-57
2023/03/12 14:44:27;;;;;;;7.78;4.68;;;;;;;;;;10411156;27;20090;-59
2023/03/12 14:49:25;;;;;;;9.45;3.13;;;;;;;;;;10412816;27;20105;-58
2023/03/12 14:54:24;;;;;;;14.07;10.18;;;;;;;;;;10413817;27;20086;-59
2023/03/12 14:59:26;;;;;;;5.88;5.28;;;;;;;;;;10412640;28;20075;-57
2023/03/12 15:04:25;;;;;;;11.00;4.00;;;;;;;;;;10408129;28;20090;-57
2023/03/12 15:09:24;;;;;;;7.85;5.82;;;;;;;;;;10407867;28;20462;-58
2023/03/12 15:14:23;;;;;;;12.65;9.13;;;;;;;;;;10413339;28;20063;-57
2023/03/12 15:19:29;;;;;;;23.73;12.70;;;;;;;;;;10413827;28;20078;-57
2023/03/12 15:24:29;;;;;;;24.00;15.05;;;;;;;;;;10408909;28;20068;-57
2023/03/12 15:29:28;;;;;;;22.23;16.52;;;;;;;;;;10411765;27;20068;-58
2023/03/12 15:34:30;;;;;;;23.70;18.02;;;;;;;;;;10410964;28;20089;-57
2023/03/12 15:39:30;;;;;;;35.35;25.02;;;;;;;;;;10411429;28;20074;-60
2023/03/12 15:44:31;;;;;;;60.58;50.35;;;;;;;;;;10412108;28;20066;-57
2023/03/12 15:49:31;;;;;;;19.67;14.60;;;;;;;;;;10411959;28;20071;-57
2023/03/12 15:54:30;;;;;;;14.90;8.75;;;;;;;;;;10413644;27;20508;-58
2023/03/12 15:59:28;;;;;;;32.72;21.80;;;;;;;;;;10413881;27;20102;-57
2023/03/12 16:04:26;;;;;;;105.38;65.22;;;;;;;;;;10421187;27;20090;-58
2023/03/12 16:09:26;;;;;;;31.77;20.15;;;;;;;;;;10418612;27;20551;-56
2023/03/12 16:14:27;;;;;;;22.83;17.13;;;;;;;;;;10421543;27;20074;-59
2023/03/12 16:19:27;;;;;;;16.75;13.57;;;;;;;;;;10418266;27;20531;-57
2023/03/12 16:24:27;;;;;;;25.98;17.08;;;;;;;;;;10415907;27;20509;-59
2023/03/12 16:29:28;;;;;;;40.83;29.23;;;;;;;;;;10412748;27;20047;-56
2023/03/12 16:34:26;;;;;;;40.15;23.38;;;;;;;;;;10415431;27;20069;-58
2023/03/12 16:39:29;;;;;;;41.13;27.48;;;;;;;;;;10418107;27;20635;-58
2023/03/12 16:44:31;;;;;;;24.52;18.00;;;;;;;;;;10418443;27;20067;-59
2023/03/12 16:49:29;;;;;;;17.88;12.98;;;;;;;;;;10418663;27;20071;-57
2023/03/12 16:54:27;;;;;;;12.70;10.82;;;;;;;;;;10416281;27;20464;-57
2023/03/12 16:59:26;;;;;;;24.42;16.73;;;;;;;;;;10418010;27;20090;-56
2023/03/12 17:04:26;;;;;;;33.55;23.70;;;;;;;;;;10415480;27;20101;-58
2023/03/12 17:09:24;;;;;;;164.00;94.20;;;;;;;;;;10417511;27;20643;-56
2023/03/12 17:14:22;;;;;;;47.20;34.88;;;;;;;;;;10417274;27;20066;-57
2023/03/12 17:19:21;;;;;;;32.45;22.42;;;;;;;;;;10417248;27;20067;-58
2023/03/12 17:24:22;;;;;;;18.80;11.82;;;;;;;;;;10416018;27;20071;-57
2023/03/12 17:29:20;;;;;;;19.40;13.68;;;;;;;;;;10415915;27;20530;-58
2023/03/12 17:34:19;;;;;;;30.25;20.70;;;;;;;;;;10416489;27;20071;-57
2023/03/12 17:39:17;;;;;;;17.42;11.38;;;;;;;;;;10412795;27;20078;-57
2023/03/12 17:44:16;;;;;;;14.32;10.63;;;;;;;;;;10415601;27;20059;-57
2023/03/12 17:49:14;;;;;;;13.75;9.95;;;;;;;;;;10415365;27;20505;-57
2023/03/12 17:54:13;;;;;;;17.38;12.52;;;;;;;;;;10416205;27;20075;-57
2023/03/12 17:59:11;;;;;;;18.23;16.10;;;;;;;;;;10413792;27;20090;-57
2023/03/12 18:04:10;;;;;;;17.55;12.38;;;;;;;;;;10413738;27;20074;-58
2023/03/12 18:09:08;;;;;;;19.90;13.38;;;;;;;;;;10413330;27;20070;-58
2023/03/12 18:14:07;;;;;;;19.20;11.93;;;;;;;;;;10415797;27;20062;-58
2023/03/12 18:19:05;;;;;;;14.10;11.57;;;;;;;;;;10412095;27;20106;-58
2023/03/12 18:24:05;;;;;;;14.57;11.20;;;;;;;;;;10414642;27;20071;-56
2023/03/12 18:29:11;;;;;;;13.07;11.27;;;;;;;;;;10413456;27;20456;-57
2023/03/12 18:34:09;;;;;;;18.17;14.93;;;;;;;;;;10415279;27;20078;-58
2023/03/12 18:39:09;;;;;;;15.60;12.88;;;;;;;;;;10413019;27;20494;-58
2023/03/12 18:44:07;;;;;;;16.85;12.52;;;;;;;;;;10413448;27;20081;-58
2023/03/12 18:49:06;;;;;;;23.60;17.13;;;;;;;;;;10412026;27;20074;-57
2023/03/12 18:54:04;;;;;;;32.53;22.85;;;;;;;;;;10412742;27;20074;-58
2023/03/12 18:59:04;;;;;;;11.45;9.95;;;;;;;;;;10411596;28;20087;-56
2023/03/12 19:04:02;;;;;;;11.30;8.50;;;;;;;;;;10412882;28;20067;-57
2023/03/12 19:09:00;;;;;;;12.35;8.32;;;;;;;;;;10413358;28;20071;-57
2023/03/12 19:14:00;;;;;;;19.70;10.00;;;;;;;;;;10412584;27;20114;-57
2023/03/12 19:19:00;;;;;;;10.18;6.85;;;;;;;;;;10412663;28;20083;-56
2023/03/12 19:23:58;;;;;;;9.02;6.68;;;;;;;;;;10407369;28;20078;-57
2023/03/12 19:28:56;;;;;;;8.80;5.82;;;;;;;;;;10416762;27;20070;-55
2023/03/12 19:33:55;;;;;;;13.07;8.63;;;;;;;;;;10419487;27;20684;-57
2023/03/12 19:38:54;;;;;;;15.77;9.63;;;;;;;;;;10421701;27;20082;-57
2023/03/12 19:43:53;;;;;;;18.38;10.50;;;;;;;;;;10416279;27;20113;-58
2023/03/12 19:48:51;;;;;;;7.18;5.47;;;;;;;;;;10419747;27;20086;-57
2023/03/12 19:53:49;;;;;;;7.80;6.15;;;;;;;;;;10419387;27;20063;-58
2023/03/12 19:58:49;;;;;;;12.93;9.27;;;;;;;;;;10418312;27;20496;-57
2023/03/12 20:03:49;;;;;;;9.73;7.82;;;;;;;;;;10421466;27;20069;-57
2023/03/12 20:08:48;;;;;;;15.77;9.50;;;;;;;;;;10418061;27;20071;-58
2023/03/12 20:13:46;;;;;;;14.75;8.20;;;;;;;;;;10417084;27;20078;-57
2023/03/12 20:18:45;;;;;;;8.13;6.50;;;;;;;;;;10419466;27;20497;-57
2023/03/12 20:23:44;;;;;;;11.88;8.02;;;;;;;;;;10418605;27;20516;-59
2023/03/12 20:28:42;;;;;;;8.38;6.50;;;;;;;;;;10418047;27;20067;-57
2023/03/12 20:33:40;;;;;;;8.60;6.45;;;;;;;;;;10412986;27;20063;-55
2023/03/12 20:38:40;;;;;;;11.98;5.68;;;;;;;;;;10418952;27;20086;-55
2023/03/12 20:43:39;;;;;;;5.88;5.25;;;;;;;;;;10416975;27;20059;-57
2023/03/12 20:48:37;;;;;;;5.53;5.03;;;;;;;;;;10417677;27;20082;-58
2023/03/12 20:53:36;;;;;;;7.25;6.38;;;;;;;;;;10417140;27;20074;-58
2023/03/12 20:58:35;;;;;;;9.10;5.60;;;;;;;;;;10414223;27;20109;-58
2023/03/12 21:03:34;;;;;;;8.27;5.72;;;;;;;;;;10416411;27;20460;-58
2023/03/12 21:08:33;;;;;;;7.15;6.15;;;;;;;;;;10418038;27;20070;-57
2023/03/12 21:13:31;;;;;;;6.40;5.53;;;;;;;;;;10416268;27;20066;-58
2023/03/12 21:18:31;;;;;;;7.57;5.63;;;;;;;;;;10416135;27;20071;-56
2023/03/12 21:23:29;;;;;;;5.25;4.65;;;;;;;;;;10416195;27;20512;-58
2023/03/12 21:28:28;;;;;;;5.45;4.72;;;;;;;;;;10415456;27;20062;-58
2023/03/12 21:33:26;;;;;;;6.75;4.55;;;;;;;;;;10415867;27;20544;-58
2023/03/12 21:38:25;;;;;;;7.97;5.25;;;;;;;;;;10416049;27;20086;-59
2023/03/12 21:43:24;;;;;;;7.93;5.90;;;;;;;;;;10414514;27;20063;-58
2023/03/12 21:48:22;;;;;;;9.10;8.20;;;;;;;;;;10410963;27;20059;-58
2023/03/12 21:53:20;;;;;;;10.77;8.98;;;;;;;;;;10413253;27;20547;-56
2023/03/12 21:58:22;;;;;;;10.27;7.32;;;;;;;;;;10415785;27;20073;-58
2023/03/12 22:03:20;;;;;;;11.73;7.80;;;;;;;;;;10415247;27;20117;-58
2023/03/12 22:08:19;;;;;;;10.18;8.95;;;;;;;;;;10413886;27;20063;-56
2023/03/12 22:13:17;;;;;;;10.77;9.68;;;;;;;;;;10415521;27;20071;-57
2023/03/12 22:18:16;;;;;;;10.27;8.18;;;;;;;;;;10410502;27;20071;-59
2023/03/12 22:23:15;;;;;;;11.43;8.23;;;;;;;;;;10414384;27;20071;-58
2023/03/12 22:28:13;;;;;;;13.13;8.40;;;;;;;;;;10414962;27;20068;-57
2023/03/12 22:33:12;;;;;;;10.55;8.38;;;;;;;;;;10414229;27;20505;-56
2023/03/12 22:38:11;;;;;;;7.90;6.90;;;;;;;;;;10413138;27;20331;-58
2023/03/12 22:43:12;;;;;;;11.32;7.90;;;;;;;;;;10414547;27;20079;-57
2023/03/12 22:48:11;;;;;;;8.70;6.80;;;;;;;;;;10412012;27;20078;-57
2023/03/12 22:53:09;;;;;;;9.00;8.10;;;;;;;;;;10413798;27;20090;-57
2023/03/12 22:58:09;;;;;;;11.43;8.75;;;;;;;;;;10411782;27;20075;-57
2023/03/12 23:03:07;;;;;;;9.57;8.57;;;;;;;;;;10412428;27;20079;-57
2023/03/12 23:08:06;;;;;;;12.60;8.50;;;;;;;;;;10427041;27;20082;-57
2023/03/12 23:13:07;;;;;;;8.82;7.72;;;;;;;;;;10427141;27;20074;-57
2023/03/12 23:18:07;;;;;;;8.30;6.75;;;;;;;;;;10424533;27;20081;-58
2023/03/12 23:23:05;;;;;;;9.30;8.15;;;;;;;;;;10427192;27;20079;-57
2023/03/12 23:28:04;;;;;;;8.73;7.25;;;;;;;;;;10425587;27;20082;-59
2023/03/12 23:33:02;;;;;;;7.57;6.78;;;;;;;;;;10426615;27;20070;-58
2023/03/12 23:38:02;;;;;;;9.30;7.50;;;;;;;;;;10425419;27;20067;-58
2023/03/12 23:43:00;;;;;;;9.38;7.82;;;;;;;;;;10425902;27;20095;-57
2023/03/12 23:47:59;;;;;;;9.80;8.70;;;;;;;;;;10425093;27;20070;-58
2023/03/12 23:52:57;;;;;;;8.35;7.47;;;;;;;;;;10425482;27;20105;-58
2023/03/12 23:57:56;;;;;;;9.95;7.82;;;;;;;;;;10420916;27;20486;-58
